createdAt,value
2022-09-26T00:03:22.741Z,97017.41
2022-09-26T00:07:25.925Z,97006.38
2022-09-26T00:11:31.706Z,97002.47
2022-09-26T00:15:34.738Z,96993.03
2022-09-26T00:19:39.773Z,96997.28
2022-09-26T00:23:43.110Z,96991.84
2022-09-26T00:27:46.610Z,96991.03
2022-09-26T00:31:50.326Z,96991.44
2022-09-26T00:35:56.231Z,96999.50
2022-09-26T00:39:59.181Z,96989.63
2022-09-26T00:44:02.710Z,96983.38
2022-09-26T00:48:07.729Z,96976.31
2022-09-26T00:52:15.328Z,96975.28
2022-09-26T00:56:23.706Z,96980.53
2022-09-26T01:00:27.421Z,96975.28
2022-09-26T01:04:32.960Z,96964.81
2022-09-26T01:08:42.338Z,96974.09
2022-09-26T01:12:45.546Z,96959.97
2022-09-26T01:16:51.789Z,96964.00
2022-09-26T01:21:02.437Z,96962.97
2022-09-26T01:25:20.155Z,96958.34
2022-09-26T01:30:01.401Z,96959.94
2022-09-26T01:34:12.588Z,96950.28
2022-09-26T01:38:32.586Z,96957.53
2022-09-26T01:42:47.310Z,96946.25
2022-09-26T01:46:55.726Z,96951.09
2022-09-26T01:51:07.946Z,96940.59
2022-09-26T01:55:15.877Z,96945.84
2022-09-26T01:59:25.211Z,96940.81
2022-09-26T02:03:32.787Z,96938.97
2022-09-26T02:07:41.085Z,96939.19
2022-09-26T02:11:48.579Z,96936.16
2022-09-26T02:15:57.616Z,96927.28
2022-09-26T02:20:02.775Z,96930.09
2022-09-26T02:24:07.350Z,96928.50
2022-09-26T02:28:10.453Z,96928.69
2022-09-26T02:32:17.478Z,96918.63
2022-09-26T02:36:22.337Z,96920.84
2022-09-26T02:40:34.310Z,96927.69
2022-09-26T02:44:49.833Z,96925.06
2022-09-26T02:49:06.313Z,96922.44
2022-09-26T02:53:22.707Z,96915.59
2022-09-26T02:57:37.630Z,96918.41
2022-09-26T03:01:46.329Z,96913.78
2022-09-26T03:05:51.051Z,96916.00
2022-09-26T03:09:56.495Z,96915.19
2022-09-26T03:14:01.871Z,96910.75
2022-09-26T03:18:09.671Z,96912.34
2022-09-26T03:22:13.224Z,96901.28
2022-09-26T03:26:24.708Z,96897.63
2022-09-26T03:30:30.348Z,96899.25
2022-09-26T03:34:33.731Z,96902.06
2022-09-26T03:38:36.988Z,96903.09
2022-09-26T03:42:40.702Z,96895.41
2022-09-26T03:46:45.245Z,96894.22
2022-09-26T03:50:48.601Z,96887.16
2022-09-26T03:54:51.811Z,96898.06
2022-09-26T03:58:54.929Z,96893.00
2022-09-26T04:03:02.037Z,96895.63
2022-09-26T04:07:05.055Z,96894.84
2022-09-26T04:11:10.287Z,96895.84
2022-09-26T04:15:13.385Z,96900.69
2022-09-26T04:19:17.763Z,96889.81
2022-09-26T04:23:20.805Z,96898.69
2022-09-26T04:27:23.863Z,96899.09
2022-09-26T04:31:28.940Z,96896.88
2022-09-26T04:35:33.382Z,96898.06
2022-09-26T04:39:37.342Z,96900.69
2022-09-26T04:43:40.771Z,96899.91
2022-09-26T04:47:43.752Z,96899.69
2022-09-26T04:51:48.925Z,96901.31
2022-09-26T04:55:54.578Z,96897.28
2022-09-26T04:59:57.619Z,96892.25
2022-09-26T05:04:00.755Z,96887.41
2022-09-26T05:08:06.078Z,96899.09
2022-09-26T05:12:09.160Z,96893.84
2022-09-26T05:16:14.659Z,96889.00
2022-09-26T05:20:20.517Z,96885.97
2022-09-26T05:24:44.752Z,96888.19
2022-09-26T05:28:50.075Z,96903.91
2022-09-26T05:32:53.131Z,96897.28
2022-09-26T05:36:56.718Z,96903.91
2022-09-26T05:41:01.285Z,96896.69
2022-09-26T05:45:04.654Z,96894.25
2022-09-26T05:49:10.140Z,96898.06
2022-09-26T05:53:13.438Z,96890.41
2022-09-26T05:57:18.003Z,96898.47
2022-09-26T06:01:21.093Z,96904.31
2022-09-26T06:05:24.814Z,96903.91
2022-09-26T06:09:27.947Z,96901.88
2022-09-26T06:13:33.471Z,96900.06
2022-09-26T06:17:37.058Z,96903.09
2022-09-26T06:21:40.442Z,96902.25
2022-09-26T06:25:43.968Z,96895.38
2022-09-26T06:29:48.678Z,96901.19
2022-09-26T06:33:53.414Z,96910.22
2022-09-26T06:37:59.166Z,96907.75
2022-09-26T06:42:02.335Z,96904.03
2022-09-26T06:46:08.985Z,96903.38
2022-09-26T06:50:12.136Z,96906.78
2022-09-26T06:54:15.243Z,96910.81
2022-09-26T06:58:18.619Z,96913.41
2022-09-26T07:02:24.083Z,96917.00
2022-09-26T07:06:27.328Z,96918.00
2022-09-26T07:10:30.709Z,96918.75
2022-09-26T07:14:33.661Z,96925.63
2022-09-26T07:18:39.755Z,96921.00
2022-09-26T07:22:44.436Z,96926.03
2022-09-26T07:26:47.558Z,96920.53
2022-09-26T07:30:50.903Z,96928.22
2022-09-26T07:34:55.296Z,96928.81
2022-09-26T07:38:59.880Z,96931.66
2022-09-26T07:43:19.035Z,96929.66
2022-09-26T07:47:39.949Z,96932.09
2022-09-26T07:56:12.839Z,96920.00
2022-09-26T08:00:17.918Z,96928.16
2022-09-26T08:04:21.808Z,96929.41
2022-09-26T08:08:26.239Z,96934.47
2022-09-26T08:12:29.703Z,96932.25
2022-09-26T08:16:33.773Z,96935.66
2022-09-26T08:20:36.972Z,96932.94
2022-09-26T08:24:44.814Z,96933.94
2022-09-26T08:28:48.586Z,96939.28
2022-09-26T08:32:54.069Z,96934.31
2022-09-26T08:36:57.479Z,96935.47
2022-09-26T08:41:17.944Z,96930.97
2022-09-26T08:45:58.078Z,96932.06
2022-09-26T08:50:12.146Z,96925.94
2022-09-26T08:54:20.352Z,96930.72
2022-09-26T08:58:29.497Z,96932.66
2022-09-26T09:02:39.598Z,96930.88
2022-09-26T09:06:45.349Z,96924.28
2022-09-26T09:10:59.120Z,96917.31
2022-09-26T09:15:27.122Z,96919.03
2022-09-26T09:19:39.035Z,96913.47
2022-09-26T09:24:01.909Z,96900.69
2022-09-26T09:28:20.370Z,96895.78
2022-09-26T09:32:32.421Z,96895.94
2022-09-26T09:36:41.716Z,96894.53
2022-09-26T09:40:52.599Z,96894.47
2022-09-26T09:45:00.888Z,96888.28
2022-09-26T09:49:25.453Z,96890.91
2022-09-26T09:53:46.786Z,96882.44
2022-09-26T09:58:17.260Z,96873.16
2022-09-26T10:02:31.960Z,96876.56
2022-09-26T10:06:46.476Z,96873.63
2022-09-26T10:11:13.585Z,96859.03
2022-09-26T10:15:21.416Z,96862.81
2022-09-26T10:19:36.624Z,96856.13
2022-09-26T10:23:46.032Z,96860.47
2022-09-26T10:27:52.383Z,96858.06
2022-09-26T10:32:00.394Z,96856.09
2022-09-26T10:36:12.176Z,96859.66
2022-09-26T10:40:44.705Z,96857.25
2022-09-26T10:44:50.414Z,96841.09
2022-09-26T10:48:56.939Z,96848.31
2022-09-26T10:53:09.071Z,96835.97
2022-09-26T10:57:23.721Z,96835.50
2022-09-26T11:01:31.780Z,96828.81
2022-09-26T11:05:54.701Z,96819.09
2022-09-26T11:10:02.097Z,96807.38
2022-09-26T11:14:08.709Z,96807.09
2022-09-26T11:18:27.164Z,96814.59
2022-09-26T11:22:38.174Z,96808.81
2022-09-26T11:26:53.976Z,96800.69
2022-09-26T11:31:06.125Z,96797.28
2022-09-26T11:35:15.385Z,96796.59
2022-09-26T11:39:34.480Z,96792.53
2022-09-26T11:43:53.026Z,96790.28
2022-09-26T11:48:28.721Z,96778.41
2022-09-26T11:52:49.162Z,96777.50
2022-09-26T11:57:04.061Z,96767.03
2022-09-26T12:01:20.677Z,96763.50
2022-09-26T12:05:38.439Z,96762.34
2022-09-26T12:10:07.353Z,96747.41
2022-09-26T12:14:20.521Z,96744.06
2022-09-26T12:18:32.568Z,96752.84
2022-09-26T12:23:14.844Z,96704.59
2022-09-26T12:27:29.407Z,96694.25
2022-09-26T12:31:49.396Z,96701.34
2022-09-26T12:36:00.666Z,96701.22
2022-09-26T12:40:19.486Z,96692.28
2022-09-26T12:44:58.298Z,96675.78
2022-09-26T12:49:18.506Z,96702.38
2022-09-26T12:53:47.504Z,96645.25
2022-09-26T12:58:06.017Z,96644.31
2022-09-26T13:02:35.230Z,96644.09
2022-09-26T13:07:18.784Z,96654.44
2022-09-26T13:11:32.700Z,96650.13
2022-09-26T13:15:44.024Z,96661.19
2022-09-26T13:19:54.898Z,96604.56
2022-09-26T13:24:01.810Z,96662.69
2022-09-26T13:28:09.734Z,96612.41
2022-09-26T13:32:20.933Z,96597.03
2022-09-26T13:36:28.313Z,96585.38
2022-09-26T13:40:41.528Z,96645.84
2022-09-26T13:44:59.266Z,96643.63
2022-09-26T14:00:05.958Z,96571.38
2022-09-26T14:24:48.130Z,96559.41
2022-09-26T14:29:43.272Z,96607.88
2022-09-26T14:34:16.087Z,96564.72
2022-09-26T14:44:20.395Z,96586.22
2022-09-26T14:48:55.058Z,96588.66
2022-09-26T14:58:42.278Z,96572.00
2022-09-26T15:03:32.842Z,96507.91
2022-09-26T15:08:11.403Z,96486.84
2022-09-26T15:13:00.897Z,96493.59
2022-09-26T15:17:54.168Z,96507.44
2022-09-26T15:27:15.422Z,96576.88
2022-09-26T15:36:17.062Z,96570.78
2022-09-26T15:40:21.839Z,96559.16
2022-09-26T15:44:31.554Z,96558.75
2022-09-26T15:48:35.855Z,96546.44
2022-09-26T15:52:44.937Z,96545.75
2022-09-26T15:56:50.660Z,96538.13
2022-09-26T16:00:54.836Z,96535.03
2022-09-26T16:04:58.692Z,96531.84
2022-09-26T16:09:08.047Z,96530.50
2022-09-26T16:13:26.048Z,96536.19
2022-09-26T16:17:35.049Z,96529.59
2022-09-26T16:21:39.985Z,96530.31
2022-09-26T16:25:56.924Z,96537.56
2022-09-26T16:30:04.738Z,96545.06
2022-09-26T16:34:22.843Z,96534.66
2022-09-26T16:38:28.437Z,96535.91
2022-09-26T16:42:34.117Z,96540.44
2022-09-26T16:46:40.211Z,96544.53
2022-09-26T16:50:43.988Z,96543.94
2022-09-26T16:54:47.051Z,96549.28
2022-09-26T16:58:55.779Z,96546.53
2022-09-26T17:02:59.013Z,96552.69
2022-09-26T17:07:09.414Z,96544.66
2022-09-26T17:11:16.969Z,96549.59
2022-09-26T17:15:28.788Z,96531.91
2022-09-26T17:19:36.520Z,96533.63
2022-09-26T17:23:41.985Z,96532.56
2022-09-26T17:27:49.891Z,96527.22
2022-09-26T17:31:56.824Z,96537.44
2022-09-26T17:36:00.246Z,96538.16
2022-09-26T17:40:06.116Z,96540.94
2022-09-26T17:44:09.410Z,96543.75
2022-09-26T17:48:21.134Z,96541.25
2022-09-26T17:52:28.970Z,96524.22
2022-09-26T17:56:32.994Z,96533.22
2022-09-26T18:00:38.919Z,96537.34
2022-09-26T18:04:44.620Z,96542.50
2022-09-26T18:08:48.322Z,96537.72
2022-09-26T18:12:58.057Z,96539.16
2022-09-26T18:17:01.665Z,96534.53
2022-09-26T18:21:08.926Z,96525.09
2022-09-26T18:25:19.054Z,96530.94
2022-09-26T18:29:28.148Z,96537.56
2022-09-26T18:33:35.842Z,96537.91
2022-09-26T18:37:42.653Z,96535.25
2022-09-26T18:41:47.184Z,96524.13
2022-09-26T18:45:51.069Z,96523.47
2022-09-26T18:49:54.846Z,96528.28
2022-09-26T18:53:59.562Z,96537.78
2022-09-26T18:58:21.976Z,96540.22
2022-09-26T19:02:27.728Z,96533.81
2022-09-26T19:06:33.370Z,96536.25
2022-09-26T19:10:38.113Z,96533.50
2022-09-26T19:14:41.913Z,96532.31
2022-09-26T19:18:46.083Z,96517.56
2022-09-26T19:22:49.228Z,96519.41
2022-09-26T19:26:56.933Z,96524.44
2022-09-26T19:31:00.382Z,96511.75
2022-09-26T19:35:11.253Z,96513.78
2022-09-26T19:39:16.261Z,96506.56
2022-09-26T19:43:22.446Z,96499.34
2022-09-26T19:47:25.705Z,96507.03
2022-09-26T19:51:29.301Z,96499.81
2022-09-26T19:55:34.047Z,96492.16
2022-09-26T19:59:39.110Z,96493.38
2022-09-26T20:03:43.937Z,96495.81
2022-09-26T20:07:47.870Z,96492.84
2022-09-26T20:11:51.523Z,96476.53
2022-09-26T20:15:57.201Z,96478.56
2022-09-26T20:20:01.060Z,96472.72
2022-09-26T20:24:06.045Z,96475.34
2022-09-26T20:28:11.695Z,96479.13
2022-09-26T20:32:16.559Z,96479.53
2022-09-26T20:36:27.113Z,96478.91
2022-09-26T20:40:31.779Z,96472.41
2022-09-26T20:44:36.631Z,96470.19
2022-09-26T20:48:47.144Z,96475.16
2022-09-26T20:52:50.315Z,96474.31
2022-09-26T20:56:54.243Z,96475.47
2022-09-26T21:00:59.984Z,96482.91
2022-09-26T21:05:05.601Z,96465.38
2022-09-26T21:09:16.439Z,96467.75
2022-09-26T21:13:19.730Z,96459.88
2022-09-26T21:17:29.690Z,96453.66
2022-09-26T21:21:34.428Z,96459.31
2022-09-26T21:25:37.994Z,96442.41
2022-09-26T21:29:41.708Z,96457.56
2022-09-26T21:33:44.841Z,96444.88
2022-09-26T21:37:52.472Z,96440.88
2022-09-26T21:41:58.993Z,96447.34
2022-09-26T21:50:27.920Z,96440.91
2022-09-26T21:54:36.930Z,96444.53
2022-09-26T21:58:42.377Z,96437.72
2022-09-26T22:02:46.139Z,96442.94
2022-09-26T22:06:50.052Z,96437.50
2022-09-26T22:10:55.503Z,96443.31
2022-09-26T22:14:59.478Z,96432.81
2022-09-26T22:19:04.926Z,96424.19
2022-09-26T22:23:08.326Z,96411.84
2022-09-26T22:27:13.844Z,96410.03
2022-09-26T22:31:17.458Z,96414.69
2022-09-26T22:35:20.700Z,96401.00
2022-09-26T22:39:24.360Z,96399.84
2022-09-26T22:43:29.354Z,96388.53
2022-09-26T22:47:33.109Z,96396.63
2022-09-26T22:51:36.945Z,96374.06
2022-09-26T22:55:40.249Z,96357.94
2022-09-26T22:59:44.799Z,96353.53
2022-09-26T23:03:48.430Z,96341.44
2022-09-26T23:07:54.832Z,96339.03
2022-09-26T23:11:58.029Z,96332.81
2022-09-26T23:16:07.016Z,96320.94
2022-09-26T23:20:11.072Z,96339.09
2022-09-26T23:24:14.284Z,96333.84
2022-09-26T23:28:18.731Z,96329.41
2022-09-26T23:32:24.174Z,96318.72
2022-09-26T23:36:27.726Z,96310.25
2022-09-26T23:40:32.946Z,96302.41
2022-09-26T23:44:36.938Z,96302.59
2022-09-26T23:48:42.250Z,96292.94
2022-09-26T23:52:46.095Z,96283.47
2022-09-26T23:56:49.296Z,96283.47
